sensor_id;sensor_type;location;lat;lon;timestamp;temperature;humidity
6098;DHT22;3077;50.922;6.584;2024-02-23T00:01:45;6.40;99.90
6098;DHT22;3077;50.922;6.584;2024-02-23T00:04:11;5.10;99.90
6098;DHT22;3077;50.922;6.584;2024-02-23T00:06:37;5.90;99.90
6098;DHT22;3077;50.922;6.584;2024-02-23T00:09:02;5.70;99.90
6098;DHT22;3077;50.922;6.584;2024-02-23T00:11:28;5.60;99.90
6098;DHT22;3077;50.922;6.584;2024-02-23T00:13:54;5.60;99.90
6098;DHT22;3077;50.922;6.584;2024-02-23T00:16:20;5.60;99.90
6098;DHT22;3077;50.922;6.584;2024-02-23T00:18:45;5.50;99.90
6098;DHT22;3077;50.922;6.584;2024-02-23T00:21:11;5.50;99.90
6098;DHT22;3077;50.922;6.584;2024-02-23T00:23:37;5.50;99.90
6098;DHT22;3077;50.922;6.584;2024-02-23T00:26:03;5.60;99.90
6098;DHT22;3077;50.922;6.584;2024-02-23T00:28:28;5.60;99.90
6098;DHT22;3077;50.922;6.584;2024-02-23T00:30:54;5.60;99.90
6098;DHT22;3077;50.922;6.584;2024-02-23T00:33:19;5.60;99.90
6098;DHT22;3077;50.922;6.584;2024-02-23T00:35:45;5.70;99.90
6098;DHT22;3077;50.922;6.584;2024-02-23T00:38:11;5.70;99.90
6098;DHT22;3077;50.922;6.584;2024-02-23T00:40:37;5.80;99.90
6098;DHT22;3077;50.922;6.584;2024-02-23T00:43:04;5.80;99.90
6098;DHT22;3077;50.922;6.584;2024-02-23T00:45:29;5.90;99.90
6098;DHT22;3077;50.922;6.584;2024-02-23T00:47:55;5.90;94.20
6098;DHT22;3077;50.922;6.584;2024-02-23T00:50:22;6.20;91.80
6098;DHT22;3077;50.922;6.584;2024-02-23T00:52:49;6.40;89.90
6098;DHT22;3077;50.922;6.584;2024-02-23T00:55:14;6.00;78.00
6098;DHT22;3077;50.922;6.584;2024-02-23T00:57:40;6.10;79.20
6098;DHT22;3077;50.922;6.584;2024-02-23T01:00:07;6.10;83.40
6098;DHT22;3077;50.922;6.584;2024-02-23T01:02:35;6.50;90.50
6098;DHT22;3077;50.922;6.584;2024-02-23T01:05:04;6.40;99.90
6098;DHT22;3077;50.922;6.584;2024-02-23T01:07:36;5.70;87.40
6098;DHT22;3077;50.922;6.584;2024-02-23T01:10:03;6.10;88.20
6098;DHT22;3077;50.922;6.584;2024-02-23T01:12:29;6.10;88.90
6098;DHT22;3077;50.922;6.584;2024-02-23T01:17:20;6.10;90.80
6098;DHT22;3077;50.922;6.584;2024-02-23T01:19:46;6.20;92.20
6098;DHT22;3077;50.922;6.584;2024-02-23T01:22:12;6.00;95.00
6098;DHT22;3077;50.922;6.584;2024-02-23T01:24:38;5.90;98.40
6098;DHT22;3077;50.922;6.584;2024-02-23T01:27:14;5.80;99.90
6098;DHT22;3077;50.922;6.584;2024-02-23T01:29:45;5.80;99.90
6098;DHT22;3077;50.922;6.584;2024-02-23T01:34:38;5.60;99.90
6098;DHT22;3077;50.922;6.584;2024-02-23T01:39:31;5.60;99.90
6098;DHT22;3077;50.922;6.584;2024-02-23T01:41:56;7.10;99.90
6098;DHT22;3077;50.922;6.584;2024-02-23T01:44:22;5.60;99.90
6098;DHT22;3077;50.922;6.584;2024-02-23T01:46:48;5.60;99.90
6098;DHT22;3077;50.922;6.584;2024-02-23T01:49:15;5.50;99.90
6098;DHT22;3077;50.922;6.584;2024-02-23T01:51:40;5.60;99.90
6098;DHT22;3077;50.922;6.584;2024-02-23T01:54:08;5.60;99.90
6098;DHT22;3077;50.922;6.584;2024-02-23T01:56:34;5.60;99.90
6098;DHT22;3077;50.922;6.584;2024-02-23T01:59:02;5.50;97.70
6098;DHT22;3077;50.922;6.584;2024-02-23T02:01:30;5.50;96.50
6098;DHT22;3077;50.922;6.584;2024-02-23T02:03:58;7.70;98.00
6098;DHT22;3077;50.922;6.584;2024-02-23T02:06:24;5.50;96.00
6098;DHT22;3077;50.922;6.584;2024-02-23T02:08:50;5.60;96.10
6098;DHT22;3077;50.922;6.584;2024-02-23T02:11:16;5.40;93.90
6098;DHT22;3077;50.922;6.584;2024-02-23T02:13:41;5.60;92.40
6098;DHT22;3077;50.922;6.584;2024-02-23T02:16:07;5.60;89.20
6098;DHT22;3077;50.922;6.584;2024-02-23T02:18:33;5.60;89.90
6098;DHT22;3077;50.922;6.584;2024-02-23T02:20:59;5.60;88.70
6098;DHT22;3077;50.922;6.584;2024-02-23T02:23:25;5.70;88.90
6098;DHT22;3077;50.922;6.584;2024-02-23T02:25:58;5.60;90.30
6098;DHT22;3077;50.922;6.584;2024-02-23T02:28:24;5.60;88.70
6098;DHT22;3077;50.922;6.584;2024-02-23T02:30:51;5.70;89.20
6098;DHT22;3077;50.922;6.584;2024-02-23T02:33:18;5.70;88.20
6098;DHT22;3077;50.922;6.584;2024-02-23T02:35:44;5.60;85.20
6098;DHT22;3077;50.922;6.584;2024-02-23T02:38:13;5.70;86.70
6098;DHT22;3077;50.922;6.584;2024-02-23T02:40:39;5.70;83.50
6098;DHT22;3077;50.922;6.584;2024-02-23T02:43:05;5.70;86.00
6098;DHT22;3077;50.922;6.584;2024-02-23T02:45:32;5.70;74.00
6098;DHT22;3077;50.922;6.584;2024-02-23T02:47:59;5.70;75.60
6098;DHT22;3077;50.922;6.584;2024-02-23T02:50:25;5.70;72.60
6098;DHT22;3077;50.922;6.584;2024-02-23T02:52:50;5.70;66.90
6098;DHT22;3077;50.922;6.584;2024-02-23T02:55:18;5.70;62.60
6098;DHT22;3077;50.922;6.584;2024-02-23T02:57:46;5.70;63.10
6098;DHT22;3077;50.922;6.584;2024-02-23T03:00:12;5.70;63.60
6098;DHT22;3077;50.922;6.584;2024-02-23T03:02:38;5.70;64.30
6098;DHT22;3077;50.922;6.584;2024-02-23T03:05:03;5.60;90.40
6098;DHT22;3077;50.922;6.584;2024-02-23T03:07:29;5.70;64.40
6098;DHT22;3077;50.922;6.584;2024-02-23T03:09:55;5.70;65.10
6098;DHT22;3077;50.922;6.584;2024-02-23T03:14:46;5.70;56.60
6098;DHT22;3077;50.922;6.584;2024-02-23T03:17:12;5.70;57.60
6098;DHT22;3077;50.922;6.584;2024-02-23T03:19:38;5.70;56.00
6098;DHT22;3077;50.922;6.584;2024-02-23T03:24:41;5.80;56.40
6098;DHT22;3077;50.922;6.584;2024-02-23T03:27:07;5.80;58.10
6098;DHT22;3077;50.922;6.584;2024-02-23T03:29:33;5.80;57.70
6098;DHT22;3077;50.922;6.584;2024-02-23T03:31:58;5.80;58.40
6098;DHT22;3077;50.922;6.584;2024-02-23T03:34:24;5.70;59.30
6098;DHT22;3077;50.922;6.584;2024-02-23T03:36:50;5.80;60.30
6098;DHT22;3077;50.922;6.584;2024-02-23T03:39:15;5.90;59.70
6098;DHT22;3077;50.922;6.584;2024-02-23T03:41:41;5.90;55.20
6098;DHT22;3077;50.922;6.584;2024-02-23T03:44:07;5.90;53.00
6098;DHT22;3077;50.922;6.584;2024-02-23T03:46:33;5.90;53.80
6098;DHT22;3077;50.922;6.584;2024-02-23T03:49:00;6.00;54.30
6098;DHT22;3077;50.922;6.584;2024-02-23T03:51:25;6.00;50.20
6098;DHT22;3077;50.922;6.584;2024-02-23T03:53:51;6.10;48.60
6098;DHT22;3077;50.922;6.584;2024-02-23T03:56:16;6.20;46.40
6098;DHT22;3077;50.922;6.584;2024-02-23T03:58:42;6.10;44.30
6098;DHT22;3077;50.922;6.584;2024-02-23T04:01:08;6.20;47.20
6098;DHT22;3077;50.922;6.584;2024-02-23T04:03:33;5.90;47.10
6098;DHT22;3077;50.922;6.584;2024-02-23T04:05:59;6.10;44.00
6098;DHT22;3077;50.922;6.584;2024-02-23T04:08:25;6.20;44.60
6098;DHT22;3077;50.922;6.584;2024-02-23T04:10:50;6.20;43.50
6098;DHT22;3077;50.922;6.584;2024-02-23T04:13:16;6.30;43.10
6098;DHT22;3077;50.922;6.584;2024-02-23T04:15:43;6.30;45.00
6098;DHT22;3077;50.922;6.584;2024-02-23T04:18:09;6.20;44.70
6098;DHT22;3077;50.922;6.584;2024-02-23T04:20:35;6.30;41.30
6098;DHT22;3077;50.922;6.584;2024-02-23T04:23:00;6.20;41.10
6098;DHT22;3077;50.922;6.584;2024-02-23T04:25:26;6.30;41.30
6098;DHT22;3077;50.922;6.584;2024-02-23T04:27:51;6.40;36.70
6098;DHT22;3077;50.922;6.584;2024-02-23T04:30:17;6.40;33.70
6098;DHT22;3077;50.922;6.584;2024-02-23T04:32:43;6.40;34.00
6098;DHT22;3077;50.922;6.584;2024-02-23T04:35:09;6.40;34.10
6098;DHT22;3077;50.922;6.584;2024-02-23T04:37:35;6.40;34.50
6098;DHT22;3077;50.922;6.584;2024-02-23T04:40:00;6.30;33.90
6098;DHT22;3077;50.922;6.584;2024-02-23T04:42:26;6.40;36.00
6098;DHT22;3077;50.922;6.584;2024-02-23T04:44:53;6.30;38.00
6098;DHT22;3077;50.922;6.584;2024-02-23T04:47:20;6.40;39.10
6098;DHT22;3077;50.922;6.584;2024-02-23T04:49:46;6.30;37.40
6098;DHT22;3077;50.922;6.584;2024-02-23T04:52:11;6.30;55.30
6098;DHT22;3077;50.922;6.584;2024-02-23T04:54:37;6.20;36.50
6098;DHT22;3077;50.922;6.584;2024-02-23T04:57:02;6.30;35.80
6098;DHT22;3077;50.922;6.584;2024-02-23T04:59:28;6.30;35.40
6098;DHT22;3077;50.922;6.584;2024-02-23T05:01:55;6.30;35.10
6098;DHT22;3077;50.922;6.584;2024-02-23T05:04:21;6.30;32.60
6098;DHT22;3077;50.922;6.584;2024-02-23T05:06:46;6.10;32.50
6098;DHT22;3077;50.922;6.584;2024-02-23T05:11:38;6.20;30.20
6098;DHT22;3077;50.922;6.584;2024-02-23T05:14:03;6.20;30.30
6098;DHT22;3077;50.922;6.584;2024-02-23T05:16:29;6.10;31.10
6098;DHT22;3077;50.922;6.584;2024-02-23T05:18:54;6.10;32.10
6098;DHT22;3077;50.922;6.584;2024-02-23T05:21:20;6.10;33.30
6098;DHT22;3077;50.922;6.584;2024-02-23T05:23:45;6.10;33.70
6098;DHT22;3077;50.922;6.584;2024-02-23T05:26:12;6.10;35.30
6098;DHT22;3077;50.922;6.584;2024-02-23T05:28:37;6.10;33.70
6098;DHT22;3077;50.922;6.584;2024-02-23T05:31:03;6.20;34.30
6098;DHT22;3077;50.922;6.584;2024-02-23T05:33:30;6.10;34.10
6098;DHT22;3077;50.922;6.584;2024-02-23T05:35:55;6.10;33.00
6098;DHT22;3077;50.922;6.584;2024-02-23T05:38:21;7.30;35.40
6098;DHT22;3077;50.922;6.584;2024-02-23T05:40:47;6.30;33.20
6098;DHT22;3077;50.922;6.584;2024-02-23T05:43:13;6.30;29.60
6098;DHT22;3077;50.922;6.584;2024-02-23T05:45:39;6.40;28.50
6098;DHT22;3077;50.922;6.584;2024-02-23T05:48:05;6.40;29.30
6098;DHT22;3077;50.922;6.584;2024-02-23T05:50:32;6.30;28.80
6098;DHT22;3077;50.922;6.584;2024-02-23T05:52:57;6.30;29.40
6098;DHT22;3077;50.922;6.584;2024-02-23T05:55:23;6.30;29.90
6098;DHT22;3077;50.922;6.584;2024-02-23T05:57:49;6.20;32.50
6098;DHT22;3077;50.922;6.584;2024-02-23T06:00:16;6.30;32.10
6098;DHT22;3077;50.922;6.584;2024-02-23T06:02:44;6.20;33.60
6098;DHT22;3077;50.922;6.584;2024-02-23T06:05:11;6.40;35.20
6098;DHT22;3077;50.922;6.584;2024-02-23T06:07:36;6.20;37.10
6098;DHT22;3077;50.922;6.584;2024-02-23T06:10:02;6.10;40.30
6098;DHT22;3077;50.922;6.584;2024-02-23T06:12:28;6.10;42.90
6098;DHT22;3077;50.922;6.584;2024-02-23T06:14:53;6.20;43.80
6098;DHT22;3077;50.922;6.584;2024-02-23T06:17:20;6.10;40.40
6098;DHT22;3077;50.922;6.584;2024-02-23T06:19:46;6.10;40.20
6098;DHT22;3077;50.922;6.584;2024-02-23T06:22:11;6.40;66.40
6098;DHT22;3077;50.922;6.584;2024-02-23T06:24:37;5.90;45.10
6098;DHT22;3077;50.922;6.584;2024-02-23T06:27:03;5.80;47.60
6098;DHT22;3077;50.922;6.584;2024-02-23T06:29:29;5.70;51.30
6098;DHT22;3077;50.922;6.584;2024-02-23T06:31:55;5.70;52.10
6098;DHT22;3077;50.922;6.584;2024-02-23T06:34:21;5.70;56.10
6098;DHT22;3077;50.922;6.584;2024-02-23T06:36:47;5.70;55.80
6098;DHT22;3077;50.922;6.584;2024-02-23T06:39:12;5.70;55.00
6098;DHT22;3077;50.922;6.584;2024-02-23T06:41:38;5.70;55.90
6098;DHT22;3077;50.922;6.584;2024-02-23T06:44:04;5.70;57.00
6098;DHT22;3077;50.922;6.584;2024-02-23T06:46:30;5.70;57.10
6098;DHT22;3077;50.922;6.584;2024-02-23T06:48:56;5.70;58.10
6098;DHT22;3077;50.922;6.584;2024-02-23T06:51:21;5.70;58.30
6098;DHT22;3077;50.922;6.584;2024-02-23T06:53:47;5.70;57.30
6098;DHT22;3077;50.922;6.584;2024-02-23T06:56:13;5.70;55.20
6098;DHT22;3077;50.922;6.584;2024-02-23T06:58:38;5.70;52.40
6098;DHT22;3077;50.922;6.584;2024-02-23T07:01:04;5.70;53.00
6098;DHT22;3077;50.922;6.584;2024-02-23T07:03:32;5.80;51.90
6098;DHT22;3077;50.922;6.584;2024-02-23T07:05:58;5.70;54.50
6098;DHT22;3077;50.922;6.584;2024-02-23T07:08:24;5.70;55.20
6098;DHT22;3077;50.922;6.584;2024-02-23T07:10:49;5.70;52.60
6098;DHT22;3077;50.922;6.584;2024-02-23T07:13:15;5.80;48.40
6098;DHT22;3077;50.922;6.584;2024-02-23T07:15:40;5.90;51.50
6098;DHT22;3077;50.922;6.584;2024-02-23T07:18:06;5.90;50.20
6098;DHT22;3077;50.922;6.584;2024-02-23T07:20:35;5.90;46.10
6098;DHT22;3077;50.922;6.584;2024-02-23T07:23:00;6.10;46.10
6098;DHT22;3077;50.922;6.584;2024-02-23T07:25:26;6.10;37.90
6098;DHT22;3077;50.922;6.584;2024-02-23T07:27:52;6.20;34.10
6098;DHT22;3077;50.922;6.584;2024-02-23T07:30:17;6.30;34.50
6098;DHT22;3077;50.922;6.584;2024-02-23T07:32:43;6.20;32.40
6098;DHT22;3077;50.922;6.584;2024-02-23T07:35:10;6.30;32.40
6098;DHT22;3077;50.922;6.584;2024-02-23T07:37:36;6.20;31.30
6098;DHT22;3077;50.922;6.584;2024-02-23T07:40:02;6.20;31.20
6098;DHT22;3077;50.922;6.584;2024-02-23T07:42:30;6.30;32.30
6098;DHT22;3077;50.922;6.584;2024-02-23T07:44:56;6.30;33.80
6098;DHT22;3077;50.922;6.584;2024-02-23T07:47:21;6.40;32.70
6098;DHT22;3077;50.922;6.584;2024-02-23T07:49:47;6.40;32.10
6098;DHT22;3077;50.922;6.584;2024-02-23T07:52:13;6.60;49.20
6098;DHT22;3077;50.922;6.584;2024-02-23T07:54:38;6.50;30.00
6098;DHT22;3077;50.922;6.584;2024-02-23T07:57:04;6.60;31.80
6098;DHT22;3077;50.922;6.584;2024-02-23T07:59:30;6.70;31.40
6098;DHT22;3077;50.922;6.584;2024-02-23T08:01:56;6.80;29.40
6098;DHT22;3077;50.922;6.584;2024-02-23T08:04:22;7.50;27.70
6098;DHT22;3077;50.922;6.584;2024-02-23T08:06:48;6.90;24.80
6098;DHT22;3077;50.922;6.584;2024-02-23T08:09:14;6.90;22.80
6098;DHT22;3077;50.922;6.584;2024-02-23T08:11:39;6.90;24.40
6098;DHT22;3077;50.922;6.584;2024-02-23T08:14:05;6.90;24.40
6098;DHT22;3077;50.922;6.584;2024-02-23T08:16:31;7.00;22.10
6098;DHT22;3077;50.922;6.584;2024-02-23T08:18:57;7.00;21.10
6098;DHT22;3077;50.922;6.584;2024-02-23T08:21:23;7.10;18.80
6098;DHT22;3077;50.922;6.584;2024-02-23T08:23:48;7.20;19.80
6098;DHT22;3077;50.922;6.584;2024-02-23T08:26:14;7.20;16.30
6098;DHT22;3077;50.922;6.584;2024-02-23T08:28:40;7.20;18.10
6098;DHT22;3077;50.922;6.584;2024-02-23T08:31:06;7.30;18.10
6098;DHT22;3077;50.922;6.584;2024-02-23T08:33:31;7.30;17.20
6098;DHT22;3077;50.922;6.584;2024-02-23T08:35:57;7.20;16.70
6098;DHT22;3077;50.922;6.584;2024-02-23T08:38:22;7.30;16.90
6098;DHT22;3077;50.922;6.584;2024-02-23T08:40:48;7.30;18.00
6098;DHT22;3077;50.922;6.584;2024-02-23T08:43:14;7.50;17.70
6098;DHT22;3077;50.922;6.584;2024-02-23T08:45:40;7.50;18.50
6098;DHT22;3077;50.922;6.584;2024-02-23T08:48:06;7.70;17.30
6098;DHT22;3077;50.922;6.584;2024-02-23T08:50:32;7.70;16.20
6098;DHT22;3077;50.922;6.584;2024-02-23T08:52:58;7.70;17.30
6098;DHT22;3077;50.922;6.584;2024-02-23T08:55:23;7.70;15.80
6098;DHT22;3077;50.922;6.584;2024-02-23T08:57:49;7.60;13.10
6098;DHT22;3077;50.922;6.584;2024-02-23T09:00:15;7.70;14.00
6098;DHT22;3077;50.922;6.584;2024-02-23T09:02:41;7.80;11.60
6098;DHT22;3077;50.922;6.584;2024-02-23T09:05:09;8.00;13.60
6098;DHT22;3077;50.922;6.584;2024-02-23T09:07:35;8.20;11.00
6098;DHT22;3077;50.922;6.584;2024-02-23T09:10:02;8.30;12.70
6098;DHT22;3077;50.922;6.584;2024-02-23T09:12:28;8.40;8.90
6098;DHT22;3077;50.922;6.584;2024-02-23T09:14:54;8.50;7.70
6098;DHT22;3077;50.922;6.584;2024-02-23T09:17:19;8.50;7.00
6098;DHT22;3077;50.922;6.584;2024-02-23T09:19:46;8.50;4.80
6098;DHT22;3077;50.922;6.584;2024-02-23T09:22:12;8.50;17.10
6098;DHT22;3077;50.922;6.584;2024-02-23T09:24:40;8.40;2.00
6098;DHT22;3077;50.922;6.584;2024-02-23T09:27:06;8.30;2.00
6098;DHT22;3077;50.922;6.584;2024-02-23T09:29:32;8.30;3.50
6098;DHT22;3077;50.922;6.584;2024-02-23T09:31:58;8.40;4.80
6098;DHT22;3077;50.922;6.584;2024-02-23T09:34:24;8.40;5.30
6098;DHT22;3077;50.922;6.584;2024-02-23T09:36:50;8.50;4.40
6098;DHT22;3077;50.922;6.584;2024-02-23T09:39:16;8.40;4.80
6098;DHT22;3077;50.922;6.584;2024-02-23T09:41:42;8.50;2.50
6098;DHT22;3077;50.922;6.584;2024-02-23T09:44:08;8.30;1.90
6098;DHT22;3077;50.922;6.584;2024-02-23T09:46:36;8.60;4.70
6098;DHT22;3077;50.922;6.584;2024-02-23T09:49:03;8.70;1.00
6098;DHT22;3077;50.922;6.584;2024-02-23T09:51:29;8.70;1.00
6098;DHT22;3077;50.922;6.584;2024-02-23T09:53:57;8.50;1.00
6098;DHT22;3077;50.922;6.584;2024-02-23T09:56:26;8.50;1.00
6098;DHT22;3077;50.922;6.584;2024-02-23T09:58:53;8.50;3.90
6098;DHT22;3077;50.922;6.584;2024-02-23T10:01:28;8.70;2.50
6098;DHT22;3077;50.922;6.584;2024-02-23T10:03:58;8.80;1.90
6098;DHT22;3077;50.922;6.584;2024-02-23T10:06:27;8.80;1.00
6098;DHT22;3077;50.922;6.584;2024-02-23T10:08:53;8.80;1.00
6098;DHT22;3077;50.922;6.584;2024-02-23T10:11:22;8.90;1.00
6098;DHT22;3077;50.922;6.584;2024-02-23T10:13:49;9.10;1.00
6098;DHT22;3077;50.922;6.584;2024-02-23T10:16:18;9.20;1.00
6098;DHT22;3077;50.922;6.584;2024-02-23T10:18:46;9.20;1.00
6098;DHT22;3077;50.922;6.584;2024-02-23T10:21:14;9.40;1.00
6098;DHT22;3077;50.922;6.584;2024-02-23T10:23:40;9.20;1.00
6098;DHT22;3077;50.922;6.584;2024-02-23T10:26:07;9.20;1.00
6098;DHT22;3077;50.922;6.584;2024-02-23T10:28:34;9.30;1.00
6098;DHT22;3077;50.922;6.584;2024-02-23T10:31:00;9.20;1.00
6098;DHT22;3077;50.922;6.584;2024-02-23T10:33:27;9.10;1.00
6098;DHT22;3077;50.922;6.584;2024-02-23T10:35:56;9.10;1.00
6098;DHT22;3077;50.922;6.584;2024-02-23T10:38:26;9.10;1.00
6098;DHT22;3077;50.922;6.584;2024-02-23T10:40:55;9.20;1.00
6098;DHT22;3077;50.922;6.584;2024-02-23T10:43:30;9.20;1.00
6098;DHT22;3077;50.922;6.584;2024-02-23T10:45:59;9.10;1.00
6098;DHT22;3077;50.922;6.584;2024-02-23T10:48:28;9.00;1.00
6098;DHT22;3077;50.922;6.584;2024-02-23T10:50:55;9.00;1.00
6098;DHT22;3077;50.922;6.584;2024-02-23T10:53:23;8.90;1.00
6098;DHT22;3077;50.922;6.584;2024-02-23T10:55:53;8.90;1.00
6098;DHT22;3077;50.922;6.584;2024-02-23T10:58:22;9.10;1.00
6098;DHT22;3077;50.922;6.584;2024-02-23T11:00:48;8.90;1.50
6098;DHT22;3077;50.922;6.584;2024-02-23T11:03:14;9.10;2.10
6098;DHT22;3077;50.922;6.584;2024-02-23T11:05:40;8.90;1.00
6098;DHT22;3077;50.922;6.584;2024-02-23T11:08:06;8.90;1.00
6098;DHT22;3077;50.922;6.584;2024-02-23T11:10:42;8.90;1.00
6098;DHT22;3077;50.922;6.584;2024-02-23T11:13:08;9.00;1.10
6098;DHT22;3077;50.922;6.584;2024-02-23T11:15:34;9.20;1.30
6098;DHT22;3077;50.922;6.584;2024-02-23T11:18:27;9.20;1.00
6098;DHT22;3077;50.922;6.584;2024-02-23T11:20:59;9.20;1.10
6098;DHT22;3077;50.922;6.584;2024-02-23T11:23:24;9.30;1.00
6098;DHT22;3077;50.922;6.584;2024-02-23T11:28:28;9.60;1.00
6098;DHT22;3077;50.922;6.584;2024-02-23T11:30:54;9.40;1.00
6098;DHT22;3077;50.922;6.584;2024-02-23T11:33:26;9.40;1.00
6098;DHT22;3077;50.922;6.584;2024-02-23T11:35:52;9.40;1.00
6098;DHT22;3077;50.922;6.584;2024-02-23T11:38:19;9.80;1.00
6098;DHT22;3077;50.922;6.584;2024-02-23T11:40:47;9.60;1.00
6098;DHT22;3077;50.922;6.584;2024-02-23T11:43:14;9.70;1.00
6098;DHT22;3077;50.922;6.584;2024-02-23T11:45:40;9.60;1.00
6098;DHT22;3077;50.922;6.584;2024-02-23T11:48:07;9.60;1.00
6098;DHT22;3077;50.922;6.584;2024-02-23T11:50:33;9.60;1.00
6098;DHT22;3077;50.922;6.584;2024-02-23T11:52:59;9.60;1.00
6098;DHT22;3077;50.922;6.584;2024-02-23T11:55:26;9.70;1.00
6098;DHT22;3077;50.922;6.584;2024-02-23T11:57:52;9.40;1.00
6098;DHT22;3077;50.922;6.584;2024-02-23T12:00:18;9.50;1.00
6098;DHT22;3077;50.922;6.584;2024-02-23T12:02:44;9.40;1.00
6098;DHT22;3077;50.922;6.584;2024-02-23T12:05:14;9.40;1.00
6098;DHT22;3077;50.922;6.584;2024-02-23T12:07:40;9.40;1.00
6098;DHT22;3077;50.922;6.584;2024-02-23T12:10:06;9.50;1.00
6098;DHT22;3077;50.922;6.584;2024-02-23T12:12:32;9.60;1.00
6098;DHT22;3077;50.922;6.584;2024-02-23T12:14:58;9.70;1.00
6098;DHT22;3077;50.922;6.584;2024-02-23T12:17:24;9.70;1.00
6098;DHT22;3077;50.922;6.584;2024-02-23T12:19:58;9.80;1.00
6098;DHT22;3077;50.922;6.584;2024-02-23T12:22:25;9.90;2.90
6098;DHT22;3077;50.922;6.584;2024-02-23T12:24:50;9.90;1.00
6098;DHT22;3077;50.922;6.584;2024-02-23T12:27:17;10.00;1.00
6098;DHT22;3077;50.922;6.584;2024-02-23T12:29:53;10.20;1.00
6098;DHT22;3077;50.922;6.584;2024-02-23T12:32:22;10.30;4.70
6098;DHT22;3077;50.922;6.584;2024-02-23T12:34:48;10.20;1.00
6098;DHT22;3077;50.922;6.584;2024-02-23T12:37:17;10.30;1.00
6098;DHT22;3077;50.922;6.584;2024-02-23T12:39:43;10.20;1.00
6098;DHT22;3077;50.922;6.584;2024-02-23T12:42:09;11.10;1.00
6098;DHT22;3077;50.922;6.584;2024-02-23T12:44:35;10.80;1.00
6098;DHT22;3077;50.922;6.584;2024-02-23T12:47:01;11.40;1.00
6098;DHT22;3077;50.922;6.584;2024-02-23T12:49:26;12.40;1.00
6098;DHT22;3077;50.922;6.584;2024-02-23T12:51:52;13.30;1.00
6098;DHT22;3077;50.922;6.584;2024-02-23T12:54:18;13.90;1.00
6098;DHT22;3077;50.922;6.584;2024-02-23T12:56:43;13.50;1.00
6098;DHT22;3077;50.922;6.584;2024-02-23T12:59:09;13.50;1.00
6098;DHT22;3077;50.922;6.584;2024-02-23T13:01:35;13.10;1.00
6098;DHT22;3077;50.922;6.584;2024-02-23T13:04:03;12.60;1.00
6098;DHT22;3077;50.922;6.584;2024-02-23T13:06:38;12.50;1.00
6098;DHT22;3077;50.922;6.584;2024-02-23T13:09:04;12.70;1.00
6098;DHT22;3077;50.922;6.584;2024-02-23T13:11:30;13.00;1.00
6098;DHT22;3077;50.922;6.584;2024-02-23T13:13:56;13.70;1.00
6098;DHT22;3077;50.922;6.584;2024-02-23T13:16:22;13.50;1.00
6098;DHT22;3077;50.922;6.584;2024-02-23T13:18:47;13.30;1.00
6098;DHT22;3077;50.922;6.584;2024-02-23T13:21:14;13.30;1.00
6098;DHT22;3077;50.922;6.584;2024-02-23T13:23:39;13.00;1.00
6098;DHT22;3077;50.922;6.584;2024-02-23T13:26:07;12.40;1.00
6098;DHT22;3077;50.922;6.584;2024-02-23T13:28:32;12.00;1.00
6098;DHT22;3077;50.922;6.584;2024-02-23T13:30:58;11.90;1.00
6098;DHT22;3077;50.922;6.584;2024-02-23T13:33:24;12.00;1.00
6098;DHT22;3077;50.922;6.584;2024-02-23T13:35:49;12.00;1.00
6098;DHT22;3077;50.922;6.584;2024-02-23T13:38:15;12.10;1.00
6098;DHT22;3077;50.922;6.584;2024-02-23T13:40:40;12.70;1.00
6098;DHT22;3077;50.922;6.584;2024-02-23T13:43:06;12.60;1.00
6098;DHT22;3077;50.922;6.584;2024-02-23T13:45:32;12.30;1.00
6098;DHT22;3077;50.922;6.584;2024-02-23T13:48:00;12.40;1.00
6098;DHT22;3077;50.922;6.584;2024-02-23T13:50:26;12.50;1.00
6098;DHT22;3077;50.922;6.584;2024-02-23T13:52:52;12.80;1.00
6098;DHT22;3077;50.922;6.584;2024-02-23T13:55:17;12.90;1.00
6098;DHT22;3077;50.922;6.584;2024-02-23T13:57:46;13.20;1.00
6098;DHT22;3077;50.922;6.584;2024-02-23T14:00:12;14.00;1.00
6098;DHT22;3077;50.922;6.584;2024-02-23T14:02:38;15.00;1.00
6098;DHT22;3077;50.922;6.584;2024-02-23T14:05:06;15.90;1.00
6098;DHT22;3077;50.922;6.584;2024-02-23T14:07:35;16.20;1.00
6098;DHT22;3077;50.922;6.584;2024-02-23T14:10:01;16.40;1.00
6098;DHT22;3077;50.922;6.584;2024-02-23T14:12:28;15.50;1.00
6098;DHT22;3077;50.922;6.584;2024-02-23T14:14:53;15.50;1.00
6098;DHT22;3077;50.922;6.584;2024-02-23T14:17:19;14.60;1.00
6098;DHT22;3077;50.922;6.584;2024-02-23T14:19:45;13.50;1.00
6098;DHT22;3077;50.922;6.584;2024-02-23T14:22:10;12.40;1.00
6098;DHT22;3077;50.922;6.584;2024-02-23T14:24:36;12.40;1.00
6098;DHT22;3077;50.922;6.584;2024-02-23T14:27:02;12.60;1.00
6098;DHT22;3077;50.922;6.584;2024-02-23T14:29:27;12.40;1.00
6098;DHT22;3077;50.922;6.584;2024-02-23T14:31:53;12.10;1.00
6098;DHT22;3077;50.922;6.584;2024-02-23T14:34:19;11.70;1.00
6098;DHT22;3077;50.922;6.584;2024-02-23T14:36:46;12.30;1.00
6098;DHT22;3077;50.922;6.584;2024-02-23T14:39:12;11.40;1.00
6098;DHT22;3077;50.922;6.584;2024-02-23T14:41:38;11.20;1.00
6098;DHT22;3077;50.922;6.584;2024-02-23T14:44:04;10.90;1.00
6098;DHT22;3077;50.922;6.584;2024-02-23T14:46:30;10.80;1.00
6098;DHT22;3077;50.922;6.584;2024-02-23T14:48:55;10.70;1.00
6098;DHT22;3077;50.922;6.584;2024-02-23T14:51:21;10.50;1.00
6098;DHT22;3077;50.922;6.584;2024-02-23T14:53:46;10.80;1.00
6098;DHT22;3077;50.922;6.584;2024-02-23T14:56:12;10.40;1.00
6098;DHT22;3077;50.922;6.584;2024-02-23T14:58:37;10.40;1.00
6098;DHT22;3077;50.922;6.584;2024-02-23T15:01:04;10.40;1.00
6098;DHT22;3077;50.922;6.584;2024-02-23T15:03:30;10.20;1.00
6098;DHT22;3077;50.922;6.584;2024-02-23T15:05:58;10.40;1.00
6098;DHT22;3077;50.922;6.584;2024-02-23T15:08:24;10.20;1.00
6098;DHT22;3077;50.922;6.584;2024-02-23T15:10:49;10.20;1.00
6098;DHT22;3077;50.922;6.584;2024-02-23T15:13:17;10.40;1.00
6098;DHT22;3077;50.922;6.584;2024-02-23T15:15:42;10.60;1.00
6098;DHT22;3077;50.922;6.584;2024-02-23T15:18:08;10.70;1.00
6098;DHT22;3077;50.922;6.584;2024-02-23T15:20:34;11.30;1.00
6098;DHT22;3077;50.922;6.584;2024-02-23T15:22:59;11.10;1.00
6098;DHT22;3077;50.922;6.584;2024-02-23T15:25:25;10.90;1.00
6098;DHT22;3077;50.922;6.584;2024-02-23T15:27:50;10.70;1.00
6098;DHT22;3077;50.922;6.584;2024-02-23T15:30:18;10.50;1.00
6098;DHT22;3077;50.922;6.584;2024-02-23T15:32:43;10.30;1.00
6098;DHT22;3077;50.922;6.584;2024-02-23T15:35:09;10.30;1.00
6098;DHT22;3077;50.922;6.584;2024-02-23T15:37:34;10.20;1.00
6098;DHT22;3077;50.922;6.584;2024-02-23T15:40:01;10.10;1.00
6098;DHT22;3077;50.922;6.584;2024-02-23T15:42:29;10.10;1.00
6098;DHT22;3077;50.922;6.584;2024-02-23T15:44:55;10.00;1.00
6098;DHT22;3077;50.922;6.584;2024-02-23T15:47:21;10.10;1.00
6098;DHT22;3077;50.922;6.584;2024-02-23T15:49:47;9.90;1.00
6098;DHT22;3077;50.922;6.584;2024-02-23T15:52:12;9.70;4.00
6098;DHT22;3077;50.922;6.584;2024-02-23T15:54:38;9.80;1.00
6098;DHT22;3077;50.922;6.584;2024-02-23T15:59:30;9.50;1.00
6098;DHT22;3077;50.922;6.584;2024-02-23T16:01:56;9.40;1.00
6098;DHT22;3077;50.922;6.584;2024-02-23T16:04:22;9.50;1.00
6098;DHT22;3077;50.922;6.584;2024-02-23T16:06:47;10.00;1.00
6098;DHT22;3077;50.922;6.584;2024-02-23T16:09:13;10.20;1.00
6098;DHT22;3077;50.922;6.584;2024-02-23T16:11:44;10.30;1.00
6098;DHT22;3077;50.922;6.584;2024-02-23T16:14:11;10.90;1.00
6098;DHT22;3077;50.922;6.584;2024-02-23T16:16:37;10.80;1.00
6098;DHT22;3077;50.922;6.584;2024-02-23T16:19:08;10.50;1.00
6098;DHT22;3077;50.922;6.584;2024-02-23T16:21:40;10.20;1.00
6098;DHT22;3077;50.922;6.584;2024-02-23T16:24:08;9.90;1.00
6098;DHT22;3077;50.922;6.584;2024-02-23T16:26:34;9.50;1.40
6098;DHT22;3077;50.922;6.584;2024-02-23T16:29:04;9.40;3.00
6098;DHT22;3077;50.922;6.584;2024-02-23T16:31:30;9.20;5.70
6098;DHT22;3077;50.922;6.584;2024-02-23T16:33:55;9.10;6.20
6098;DHT22;3077;50.922;6.584;2024-02-23T16:36:21;9.20;7.20